sensor_id;sensor_type;location;lat;lon;timestamp;P1;durP1;ratioP1;P2;durP2;ratioP2
6388;SDS011;3227;42.654;23.360;2022-09-13T00:01:18;7.93;;;4.10;;
6388;SDS011;3227;42.654;23.360;2022-09-13T00:03:45;6.57;;;4.00;;
6388;SDS011;3227;42.654;23.360;2022-09-13T00:06:12;9.73;;;3.77;;
6388;SDS011;3227;42.654;23.360;2022-09-13T00:08:40;8.07;;;3.93;;
6388;SDS011;3227;42.654;23.360;2022-09-13T00:11:13;7.17;;;3.90;;
6388;SDS011;3227;42.654;23.360;2022-09-13T00:13:42;7.47;;;3.80;;
6388;SDS011;3227;42.654;23.360;2022-09-13T00:16:10;9.67;;;4.17;;
6388;SDS011;3227;42.654;23.360;2022-09-13T00:18:38;6.50;;;3.90;;
6388;SDS011;3227;42.654;23.360;2022-09-13T00:21:06;6.00;;;3.73;;
6388;SDS011;3227;42.654;23.360;2022-09-13T00:23:34;7.07;;;3.90;;
6388;SDS011;3227;42.654;23.360;2022-09-13T00:26:02;9.50;;;4.20;;
6388;SDS011;3227;42.654;23.360;2022-09-13T00:28:32;6.20;;;3.83;;
6388;SDS011;3227;42.654;23.360;2022-09-13T00:30:59;6.23;;;3.87;;
6388;SDS011;3227;42.654;23.360;2022-09-13T00:33:26;6.67;;;4.03;;
6388;SDS011;3227;42.654;23.360;2022-09-13T00:35:53;8.20;;;4.63;;
6388;SDS011;3227;42.654;23.360;2022-09-13T00:38:20;8.67;;;4.27;;
6388;SDS011;3227;42.654;23.360;2022-09-13T00:40:47;9.00;;;4.30;;
6388;SDS011;3227;42.654;23.360;2022-09-13T00:43:15;6.70;;;4.17;;
6388;SDS011;3227;42.654;23.360;2022-09-13T00:45:45;7.77;;;4.40;;
6388;SDS011;3227;42.654;23.360;2022-09-13T00:48:15;7.60;;;4.30;;
6388;SDS011;3227;42.654;23.360;2022-09-13T00:50:47;8.97;;;4.20;;
6388;SDS011;3227;42.654;23.360;2022-09-13T00:53:18;8.70;;;4.10;;
6388;SDS011;3227;42.654;23.360;2022-09-13T00:55:50;6.87;;;4.20;;
6388;SDS011;3227;42.654;23.360;2022-09-13T00:58:22;7.07;;;4.40;;
6388;SDS011;3227;42.654;23.360;2022-09-13T01:00:54;8.97;;;4.10;;
6388;SDS011;3227;42.654;23.360;2022-09-13T01:03:23;8.93;;;4.67;;
6388;SDS011;3227;42.654;23.360;2022-09-13T01:05:54;7.33;;;4.37;;
6388;SDS011;3227;42.654;23.360;2022-09-13T01:08:26;8.60;;;4.43;;
6388;SDS011;3227;42.654;23.360;2022-09-13T01:10:55;7.50;;;4.23;;
6388;SDS011;3227;42.654;23.360;2022-09-13T01:13:26;7.63;;;3.93;;
6388;SDS011;3227;42.654;23.360;2022-09-13T01:15:58;9.33;;;4.60;;
6388;SDS011;3227;42.654;23.360;2022-09-13T01:18:25;9.40;;;4.63;;
6388;SDS011;3227;42.654;23.360;2022-09-13T01:21:12;8.47;;;4.20;;
6388;SDS011;3227;42.654;23.360;2022-09-13T01:24:19;7.50;;;4.43;;
6388;SDS011;3227;42.654;23.360;2022-09-13T01:27:22;9.33;;;4.10;;
6388;SDS011;3227;42.654;23.360;2022-09-13T01:30:04;7.70;;;4.23;;
6388;SDS011;3227;42.654;23.360;2022-09-13T01:32:35;9.37;;;4.50;;
6388;SDS011;3227;42.654;23.360;2022-09-13T01:35:15;7.80;;;4.17;;
6388;SDS011;3227;42.654;23.360;2022-09-13T01:37:53;7.90;;;4.10;;
6388;SDS011;3227;42.654;23.360;2022-09-13T01:40:30;7.47;;;4.30;;
6388;SDS011;3227;42.654;23.360;2022-09-13T01:43:13;6.90;;;4.17;;
6388;SDS011;3227;42.654;23.360;2022-09-13T01:46:02;6.77;;;4.13;;
6388;SDS011;3227;42.654;23.360;2022-09-13T01:48:33;10.23;;;4.30;;
6388;SDS011;3227;42.654;23.360;2022-09-13T01:51:15;8.83;;;4.00;;
6388;SDS011;3227;42.654;23.360;2022-09-13T01:53:51;8.43;;;4.17;;
6388;SDS011;3227;42.654;23.360;2022-09-13T01:56:31;6.83;;;4.33;;
6388;SDS011;3227;42.654;23.360;2022-09-13T01:59:03;6.10;;;4.20;;
6388;SDS011;3227;42.654;23.360;2022-09-13T02:01:38;7.47;;;3.80;;
6388;SDS011;3227;42.654;23.360;2022-09-13T02:04:09;10.50;;;4.37;;
6388;SDS011;3227;42.654;23.360;2022-09-13T02:06:40;9.30;;;4.37;;
6388;SDS011;3227;42.654;23.360;2022-09-13T02:09:12;6.80;;;3.97;;
6388;SDS011;3227;42.654;23.360;2022-09-13T02:11:43;6.40;;;4.27;;
6388;SDS011;3227;42.654;23.360;2022-09-13T02:14:14;7.83;;;4.07;;
6388;SDS011;3227;42.654;23.360;2022-09-13T02:16:46;8.00;;;3.90;;
6388;SDS011;3227;42.654;23.360;2022-09-13T02:19:17;6.63;;;4.23;;
6388;SDS011;3227;42.654;23.360;2022-09-13T02:21:49;8.07;;;4.43;;
6388;SDS011;3227;42.654;23.360;2022-09-13T02:24:22;7.60;;;4.43;;
6388;SDS011;3227;42.654;23.360;2022-09-13T02:26:51;6.87;;;4.27;;
6388;SDS011;3227;42.654;23.360;2022-09-13T02:29:21;7.33;;;4.57;;
6388;SDS011;3227;42.654;23.360;2022-09-13T02:31:55;5.80;;;3.83;;
6388;SDS011;3227;42.654;23.360;2022-09-13T02:34:30;11.33;;;4.73;;
6388;SDS011;3227;42.654;23.360;2022-09-13T02:37:01;7.20;;;4.57;;
6388;SDS011;3227;42.654;23.360;2022-09-13T02:39:32;7.00;;;4.27;;
6388;SDS011;3227;42.654;23.360;2022-09-13T02:42:04;7.27;;;4.67;;
6388;SDS011;3227;42.654;23.360;2022-09-13T02:44:37;7.83;;;4.50;;
6388;SDS011;3227;42.654;23.360;2022-09-13T02:47:10;9.00;;;4.70;;
6388;SDS011;3227;42.654;23.360;2022-09-13T02:49:48;8.07;;;4.13;;
6388;SDS011;3227;42.654;23.360;2022-09-13T02:52:25;8.03;;;4.33;;
6388;SDS011;3227;42.654;23.360;2022-09-13T02:55:03;6.37;;;4.00;;
6388;SDS011;3227;42.654;23.360;2022-09-13T02:57:39;8.50;;;4.30;;
6388;SDS011;3227;42.654;23.360;2022-09-13T03:00:14;9.80;;;4.03;;
6388;SDS011;3227;42.654;23.360;2022-09-13T03:02:42;5.97;;;3.67;;
6388;SDS011;3227;42.654;23.360;2022-09-13T03:05:12;7.20;;;4.43;;
6388;SDS011;3227;42.654;23.360;2022-09-13T03:07:39;7.30;;;4.33;;
6388;SDS011;3227;42.654;23.360;2022-09-13T03:10:06;7.53;;;4.03;;
6388;SDS011;3227;42.654;23.360;2022-09-13T03:12:49;6.43;;;4.20;;
6388;SDS011;3227;42.654;23.360;2022-09-13T03:15:29;6.90;;;4.27;;
6388;SDS011;3227;42.654;23.360;2022-09-13T03:18:13;7.07;;;4.23;;
6388;SDS011;3227;42.654;23.360;2022-09-13T03:20:51;6.53;;;3.87;;
6388;SDS011;3227;42.654;23.360;2022-09-13T03:26:23;9.70;;;4.60;;
6388;SDS011;3227;42.654;23.360;2022-09-13T03:29:12;7.37;;;4.20;;
6388;SDS011;3227;42.654;23.360;2022-09-13T03:31:50;8.53;;;4.13;;
6388;SDS011;3227;42.654;23.360;2022-09-13T03:34:26;9.10;;;4.10;;
6388;SDS011;3227;42.654;23.360;2022-09-13T03:37:00;7.17;;;3.93;;
6388;SDS011;3227;42.654;23.360;2022-09-13T03:39:33;9.30;;;4.30;;
6388;SDS011;3227;42.654;23.360;2022-09-13T03:42:08;6.77;;;4.33;;
6388;SDS011;3227;42.654;23.360;2022-09-13T03:44:40;7.73;;;4.20;;
6388;SDS011;3227;42.654;23.360;2022-09-13T03:47:11;7.70;;;4.40;;
6388;SDS011;3227;42.654;23.360;2022-09-13T03:49:42;6.80;;;4.27;;
6388;SDS011;3227;42.654;23.360;2022-09-13T03:52:09;7.57;;;3.80;;
6388;SDS011;3227;42.654;23.360;2022-09-13T03:54:37;7.30;;;4.00;;
6388;SDS011;3227;42.654;23.360;2022-09-13T03:57:04;6.67;;;4.00;;
6388;SDS011;3227;42.654;23.360;2022-09-13T03:59:32;8.60;;;4.30;;
6388;SDS011;3227;42.654;23.360;2022-09-13T04:02:00;6.73;;;3.97;;
6388;SDS011;3227;42.654;23.360;2022-09-13T04:04:27;5.97;;;3.40;;
6388;SDS011;3227;42.654;23.360;2022-09-13T04:06:56;7.17;;;4.20;;
6388;SDS011;3227;42.654;23.360;2022-09-13T04:09:23;7.00;;;3.80;;
6388;SDS011;3227;42.654;23.360;2022-09-13T04:11:49;9.70;;;4.33;;
6388;SDS011;3227;42.654;23.360;2022-09-13T04:14:16;9.00;;;4.23;;
6388;SDS011;3227;42.654;23.360;2022-09-13T04:16:43;8.47;;;3.93;;
6388;SDS011;3227;42.654;23.360;2022-09-13T04:19:09;7.53;;;4.03;;
6388;SDS011;3227;42.654;23.360;2022-09-13T04:21:36;9.93;;;4.10;;
6388;SDS011;3227;42.654;23.360;2022-09-13T04:24:05;7.10;;;3.93;;
6388;SDS011;3227;42.654;23.360;2022-09-13T04:26:31;6.40;;;4.07;;
6388;SDS011;3227;42.654;23.360;2022-09-13T04:28:59;8.30;;;4.50;;
6388;SDS011;3227;42.654;23.360;2022-09-13T04:31:26;8.13;;;3.60;;
6388;SDS011;3227;42.654;23.360;2022-09-13T04:33:53;7.57;;;4.03;;
6388;SDS011;3227;42.654;23.360;2022-09-13T04:36:19;9.70;;;4.03;;
6388;SDS011;3227;42.654;23.360;2022-09-13T04:38:47;6.33;;;4.00;;
6388;SDS011;3227;42.654;23.360;2022-09-13T04:41:15;9.63;;;4.03;;
6388;SDS011;3227;42.654;23.360;2022-09-13T04:43:42;11.33;;;4.20;;
6388;SDS011;3227;42.654;23.360;2022-09-13T04:46:08;9.40;;;3.77;;
6388;SDS011;3227;42.654;23.360;2022-09-13T04:48:35;7.67;;;4.00;;
6388;SDS011;3227;42.654;23.360;2022-09-13T04:51:02;8.80;;;4.17;;
6388;SDS011;3227;42.654;23.360;2022-09-13T04:53:29;12.47;;;3.83;;
6388;SDS011;3227;42.654;23.360;2022-09-13T04:55:59;8.57;;;3.87;;
6388;SDS011;3227;42.654;23.360;2022-09-13T04:58:27;7.40;;;3.70;;
6388;SDS011;3227;42.654;23.360;2022-09-13T05:00:59;8.98;;;3.88;;
6388;SDS011;3227;42.654;23.360;2022-09-13T05:03:28;6.60;;;3.88;;
6388;SDS011;3227;42.654;23.360;2022-09-13T05:05:59;9.43;;;3.80;;
6388;SDS011;3227;42.654;23.360;2022-09-13T05:08:27;6.25;;;3.65;;
6388;SDS011;3227;42.654;23.360;2022-09-13T05:10:54;7.75;;;3.72;;
6388;SDS011;3227;42.654;23.360;2022-09-13T05:13:20;8.20;;;4.13;;
6388;SDS011;3227;42.654;23.360;2022-09-13T05:15:49;12.57;;;3.70;;
6388;SDS011;3227;42.654;23.360;2022-09-13T05:18:15;8.40;;;3.78;;
6388;SDS011;3227;42.654;23.360;2022-09-13T05:20:42;7.00;;;3.45;;
6388;SDS011;3227;42.654;23.360;2022-09-13T05:23:09;8.43;;;3.60;;
6388;SDS011;3227;42.654;23.360;2022-09-13T05:25:36;8.73;;;4.00;;
6388;SDS011;3227;42.654;23.360;2022-09-13T05:28:04;7.82;;;3.72;;
6388;SDS011;3227;42.654;23.360;2022-09-13T05:30:30;7.80;;;3.65;;
6388;SDS011;3227;42.654;23.360;2022-09-13T05:32:58;7.15;;;3.45;;
6388;SDS011;3227;42.654;23.360;2022-09-13T05:35:30;9.13;;;3.85;;
6388;SDS011;3227;42.654;23.360;2022-09-13T05:38:05;10.60;;;3.70;;
6388;SDS011;3227;42.654;23.360;2022-09-13T05:40:38;18.05;;;4.82;;
6388;SDS011;3227;42.654;23.360;2022-09-13T05:43:05;10.50;;;3.67;;
6388;SDS011;3227;42.654;23.360;2022-09-13T05:45:32;7.43;;;3.60;;
6388;SDS011;3227;42.654;23.360;2022-09-13T05:48:00;8.90;;;3.10;;
6388;SDS011;3227;42.654;23.360;2022-09-13T05:50:27;6.43;;;3.40;;
6388;SDS011;3227;42.654;23.360;2022-09-13T05:52:54;8.05;;;3.38;;
6388;SDS011;3227;42.654;23.360;2022-09-13T05:55:21;11.80;;;3.85;;
6388;SDS011;3227;42.654;23.360;2022-09-13T05:57:49;8.70;;;3.30;;
6388;SDS011;3227;42.654;23.360;2022-09-13T06:00:15;9.02;;;3.30;;
6388;SDS011;3227;42.654;23.360;2022-09-13T06:02:42;5.30;;;3.15;;
6388;SDS011;3227;42.654;23.360;2022-09-13T06:05:10;10.52;;;3.50;;
6388;SDS011;3227;42.654;23.360;2022-09-13T06:07:38;8.45;;;3.22;;
6388;SDS011;3227;42.654;23.360;2022-09-13T06:10:06;7.60;;;3.50;;
6388;SDS011;3227;42.654;23.360;2022-09-13T06:12:34;9.35;;;3.33;;
6388;SDS011;3227;42.654;23.360;2022-09-13T06:15:01;8.65;;;3.17;;
6388;SDS011;3227;42.654;23.360;2022-09-13T06:17:28;6.05;;;2.92;;
6388;SDS011;3227;42.654;23.360;2022-09-13T06:19:55;6.88;;;3.80;;
6388;SDS011;3227;42.654;23.360;2022-09-13T06:22:23;7.82;;;3.15;;
6388;SDS011;3227;42.654;23.360;2022-09-13T06:24:50;6.70;;;3.17;;
6388;SDS011;3227;42.654;23.360;2022-09-13T06:27:17;6.97;;;3.30;;
6388;SDS011;3227;42.654;23.360;2022-09-13T06:29:43;5.97;;;3.17;;
6388;SDS011;3227;42.654;23.360;2022-09-13T06:32:10;7.15;;;3.00;;
6388;SDS011;3227;42.654;23.360;2022-09-13T06:34:37;6.38;;;3.13;;
6388;SDS011;3227;42.654;23.360;2022-09-13T06:37:03;6.10;;;3.25;;
6388;SDS011;3227;42.654;23.360;2022-09-13T06:39:32;10.07;;;3.22;;
6388;SDS011;3227;42.654;23.360;2022-09-13T06:41:59;8.63;;;3.20;;
6388;SDS011;3227;42.654;23.360;2022-09-13T06:44:26;6.82;;;3.28;;
6388;SDS011;3227;42.654;23.360;2022-09-13T06:46:53;7.82;;;3.28;;
6388;SDS011;3227;42.654;23.360;2022-09-13T06:49:20;10.43;;;3.35;;
6388;SDS011;3227;42.654;23.360;2022-09-13T06:51:46;5.63;;;3.20;;
6388;SDS011;3227;42.654;23.360;2022-09-13T06:54:13;11.18;;;3.67;;
6388;SDS011;3227;42.654;23.360;2022-09-13T06:56:42;10.88;;;3.72;;
6388;SDS011;3227;42.654;23.360;2022-09-13T06:59:09;7.97;;;3.65;;
6388;SDS011;3227;42.654;23.360;2022-09-13T07:01:36;7.70;;;3.40;;
6388;SDS011;3227;42.654;23.360;2022-09-13T07:04:05;6.93;;;3.20;;
6388;SDS011;3227;42.654;23.360;2022-09-13T07:06:33;8.07;;;3.28;;
6388;SDS011;3227;42.654;23.360;2022-09-13T07:09:01;5.32;;;2.92;;
6388;SDS011;3227;42.654;23.360;2022-09-13T07:11:31;6.63;;;3.50;;
6388;SDS011;3227;42.654;23.360;2022-09-13T07:14:00;5.60;;;3.10;;
6388;SDS011;3227;42.654;23.360;2022-09-13T07:16:28;7.43;;;3.22;;
6388;SDS011;3227;42.654;23.360;2022-09-13T07:18:57;4.40;;;2.80;;
6388;SDS011;3227;42.654;23.360;2022-09-13T07:21:25;6.75;;;3.22;;
6388;SDS011;3227;42.654;23.360;2022-09-13T07:23:53;7.35;;;3.20;;
6388;SDS011;3227;42.654;23.360;2022-09-13T07:26:21;5.78;;;3.17;;
6388;SDS011;3227;42.654;23.360;2022-09-13T07:28:48;6.85;;;3.20;;
6388;SDS011;3227;42.654;23.360;2022-09-13T07:31:19;7.00;;;3.35;;
6388;SDS011;3227;42.654;23.360;2022-09-13T07:33:51;6.65;;;3.00;;
6388;SDS011;3227;42.654;23.360;2022-09-13T07:36:19;10.13;;;3.05;;
6388;SDS011;3227;42.654;23.360;2022-09-13T07:38:46;7.03;;;2.97;;
6388;SDS011;3227;42.654;23.360;2022-09-13T07:41:14;7.88;;;3.22;;
6388;SDS011;3227;42.654;23.360;2022-09-13T07:43:42;7.75;;;2.80;;
6388;SDS011;3227;42.654;23.360;2022-09-13T07:46:09;9.65;;;2.90;;
6388;SDS011;3227;42.654;23.360;2022-09-13T07:48:40;5.18;;;2.90;;
6388;SDS011;3227;42.654;23.360;2022-09-13T07:51:08;9.60;;;3.20;;
6388;SDS011;3227;42.654;23.360;2022-09-13T07:53:37;4.25;;;2.50;;
6388;SDS011;3227;42.654;23.360;2022-09-13T07:56:05;5.80;;;3.20;;
6388;SDS011;3227;42.654;23.360;2022-09-13T07:58:34;5.32;;;2.80;;
6388;SDS011;3227;42.654;23.360;2022-09-13T08:01:03;5.60;;;3.08;;
6388;SDS011;3227;42.654;23.360;2022-09-13T08:03:31;7.10;;;3.17;;
6388;SDS011;3227;42.654;23.360;2022-09-13T08:06:00;5.50;;;3.03;;
6388;SDS011;3227;42.654;23.360;2022-09-13T08:08:28;6.82;;;3.13;;
6388;SDS011;3227;42.654;23.360;2022-09-13T08:10:55;6.72;;;2.88;;
6388;SDS011;3227;42.654;23.360;2022-09-13T08:13:22;8.38;;;3.00;;
6388;SDS011;3227;42.654;23.360;2022-09-13T08:15:49;5.30;;;3.10;;
6388;SDS011;3227;42.654;23.360;2022-09-13T08:18:16;6.97;;;3.45;;
6388;SDS011;3227;42.654;23.360;2022-09-13T08:20:43;5.90;;;3.47;;
6388;SDS011;3227;42.654;23.360;2022-09-13T08:23:11;7.53;;;3.20;;
6388;SDS011;3227;42.654;23.360;2022-09-13T08:25:39;7.47;;;3.13;;
6388;SDS011;3227;42.654;23.360;2022-09-13T08:28:06;10.68;;;4.35;;
6388;SDS011;3227;42.654;23.360;2022-09-13T08:30:35;7.65;;;4.03;;
6388;SDS011;3227;42.654;23.360;2022-09-13T08:33:03;5.22;;;3.08;;
6388;SDS011;3227;42.654;23.360;2022-09-13T08:35:30;7.90;;;3.20;;
6388;SDS011;3227;42.654;23.360;2022-09-13T08:37:58;5.47;;;2.78;;
6388;SDS011;3227;42.654;23.360;2022-09-13T08:40:27;4.22;;;2.55;;
6388;SDS011;3227;42.654;23.360;2022-09-13T08:42:59;5.53;;;2.38;;
6388;SDS011;3227;42.654;23.360;2022-09-13T08:45:31;7.22;;;2.60;;
6388;SDS011;3227;42.654;23.360;2022-09-13T08:48:00;4.93;;;2.50;;
6388;SDS011;3227;42.654;23.360;2022-09-13T08:50:32;4.43;;;2.30;;
6388;SDS011;3227;42.654;23.360;2022-09-13T08:53:05;7.43;;;2.50;;
6388;SDS011;3227;42.654;23.360;2022-09-13T08:55:48;8.27;;;2.40;;
6388;SDS011;3227;42.654;23.360;2022-09-13T08:58:32;5.45;;;2.58;;
6388;SDS011;3227;42.654;23.360;2022-09-13T09:01:11;6.47;;;2.60;;
6388;SDS011;3227;42.654;23.360;2022-09-13T09:03:47;6.65;;;2.90;;
6388;SDS011;3227;42.654;23.360;2022-09-13T09:06:24;7.28;;;2.90;;
6388;SDS011;3227;42.654;23.360;2022-09-13T09:08:51;5.50;;;2.63;;
6388;SDS011;3227;42.654;23.360;2022-09-13T09:11:27;5.45;;;2.60;;
6388;SDS011;3227;42.654;23.360;2022-09-13T09:14:01;4.70;;;2.63;;
6388;SDS011;3227;42.654;23.360;2022-09-13T09:16:34;3.60;;;2.30;;
6388;SDS011;3227;42.654;23.360;2022-09-13T09:19:14;5.57;;;2.38;;
6388;SDS011;3227;42.654;23.360;2022-09-13T09:21:47;3.20;;;2.00;;
6388;SDS011;3227;42.654;23.360;2022-09-13T09:24:16;5.15;;;2.70;;
6388;SDS011;3227;42.654;23.360;2022-09-13T09:26:48;5.13;;;2.20;;
6388;SDS011;3227;42.654;23.360;2022-09-13T09:29:17;6.38;;;2.25;;
6388;SDS011;3227;42.654;23.360;2022-09-13T09:31:47;8.07;;;2.60;;
6388;SDS011;3227;42.654;23.360;2022-09-13T09:34:25;4.50;;;2.40;;
6388;SDS011;3227;42.654;23.360;2022-09-13T09:37:07;6.22;;;2.42;;
6388;SDS011;3227;42.654;23.360;2022-09-13T09:39:42;4.47;;;2.50;;
6388;SDS011;3227;42.654;23.360;2022-09-13T09:42:11;6.68;;;2.70;;
6388;SDS011;3227;42.654;23.360;2022-09-13T09:44:41;5.13;;;2.40;;
6388;SDS011;3227;42.654;23.360;2022-09-13T09:47:11;6.57;;;2.67;;
6388;SDS011;3227;42.654;23.360;2022-09-13T09:49:41;3.50;;;2.20;;
6388;SDS011;3227;42.654;23.360;2022-09-13T09:52:30;4.13;;;2.65;;
6388;SDS011;3227;42.654;23.360;2022-09-13T09:55:03;4.57;;;2.45;;
6388;SDS011;3227;42.654;23.360;2022-09-13T09:57:51;8.80;;;2.30;;
6388;SDS011;3227;42.654;23.360;2022-09-13T10:00:20;5.72;;;2.47;;
6388;SDS011;3227;42.654;23.360;2022-09-13T10:02:50;6.38;;;2.70;;
6388;SDS011;3227;42.654;23.360;2022-09-13T10:05:21;5.28;;;2.63;;
6388;SDS011;3227;42.654;23.360;2022-09-13T10:07:53;5.55;;;2.60;;
6388;SDS011;3227;42.654;23.360;2022-09-13T10:10:25;7.60;;;2.45;;
6388;SDS011;3227;42.654;23.360;2022-09-13T10:12:58;4.93;;;2.42;;
6388;SDS011;3227;42.654;23.360;2022-09-13T10:15:27;3.85;;;2.25;;
6388;SDS011;3227;42.654;23.360;2022-09-13T10:18:01;4.25;;;2.53;;
6388;SDS011;3227;42.654;23.360;2022-09-13T10:20:31;8.60;;;2.90;;
6388;SDS011;3227;42.654;23.360;2022-09-13T10:23:09;4.95;;;2.80;;
6388;SDS011;3227;42.654;23.360;2022-09-13T10:25:42;6.60;;;2.80;;
6388;SDS011;3227;42.654;23.360;2022-09-13T10:28:13;6.82;;;3.00;;
6388;SDS011;3227;42.654;23.360;2022-09-13T10:30:45;5.20;;;2.50;;
6388;SDS011;3227;42.654;23.360;2022-09-13T10:33:19;4.88;;;2.70;;
6388;SDS011;3227;42.654;23.360;2022-09-13T10:35:52;6.38;;;2.80;;
6388;SDS011;3227;42.654;23.360;2022-09-13T10:38:23;4.60;;;2.47;;
6388;SDS011;3227;42.654;23.360;2022-09-13T10:40:54;4.40;;;2.55;;
6388;SDS011;3227;42.654;23.360;2022-09-13T10:43:24;4.32;;;2.53;;
6388;SDS011;3227;42.654;23.360;2022-09-13T10:45:54;4.20;;;2.60;;
6388;SDS011;3227;42.654;23.360;2022-09-13T10:48:21;6.82;;;2.80;;
6388;SDS011;3227;42.654;23.360;2022-09-13T10:53:41;4.18;;;2.33;;
6388;SDS011;3227;42.654;23.360;2022-09-13T10:56:18;4.43;;;2.72;;
6388;SDS011;3227;42.654;23.360;2022-09-13T10:58:47;4.93;;;2.45;;
6388;SDS011;3227;42.654;23.360;2022-09-13T11:07:25;4.30;;;2.50;;
6388;SDS011;3227;42.654;23.360;2022-09-13T11:10:09;6.97;;;2.75;;
6388;SDS011;3227;42.654;23.360;2022-09-13T11:12:44;5.35;;;2.67;;
6388;SDS011;3227;42.654;23.360;2022-09-13T11:15:24;7.05;;;2.60;;
6388;SDS011;3227;42.654;23.360;2022-09-13T11:18:19;3.78;;;2.50;;
6388;SDS011;3227;42.654;23.360;2022-09-13T11:20:57;6.97;;;2.97;;
6388;SDS011;3227;42.654;23.360;2022-09-13T11:26:33;5.15;;;2.67;;
6388;SDS011;3227;42.654;23.360;2022-09-13T11:29:13;5.63;;;2.70;;
6388;SDS011;3227;42.654;23.360;2022-09-13T11:31:52;4.60;;;2.47;;
6388;SDS011;3227;42.654;23.360;2022-09-13T11:34:36;5.50;;;2.60;;
6388;SDS011;3227;42.654;23.360;2022-09-13T11:37:26;5.07;;;2.55;;
6388;SDS011;3227;42.654;23.360;2022-09-13T11:40:02;7.88;;;2.38;;
6388;SDS011;3227;42.654;23.360;2022-09-13T11:42:49;4.45;;;2.40;;
6388;SDS011;3227;42.654;23.360;2022-09-13T11:45:24;5.38;;;2.50;;
6388;SDS011;3227;42.654;23.360;2022-09-13T11:48:01;4.32;;;2.30;;
6388;SDS011;3227;42.654;23.360;2022-09-13T11:50:41;5.60;;;2.58;;
6388;SDS011;3227;42.654;23.360;2022-09-13T11:56:16;5.25;;;2.40;;
6388;SDS011;3227;42.654;23.360;2022-09-13T11:58:49;4.90;;;2.30;;
6388;SDS011;3227;42.654;23.360;2022-09-13T12:01:19;6.45;;;2.28;;
6388;SDS011;3227;42.654;23.360;2022-09-13T12:03:53;5.75;;;2.50;;
6388;SDS011;3227;42.654;23.360;2022-09-13T12:06:26;4.53;;;2.50;;
6388;SDS011;3227;42.654;23.360;2022-09-13T12:08:56;3.40;;;2.13;;
6388;SDS011;3227;42.654;23.360;2022-09-13T12:11:28;4.35;;;2.58;;
6388;SDS011;3227;42.654;23.360;2022-09-13T12:14:00;4.13;;;2.50;;
6388;SDS011;3227;42.654;23.360;2022-09-13T12:16:30;3.30;;;2.00;;
6388;SDS011;3227;42.654;23.360;2022-09-13T12:19:02;6.00;;;2.80;;
6388;SDS011;3227;42.654;23.360;2022-09-13T12:21:34;4.05;;;2.30;;
6388;SDS011;3227;42.654;23.360;2022-09-13T12:24:04;6.03;;;2.25;;
6388;SDS011;3227;42.654;23.360;2022-09-13T12:26:44;3.58;;;2.30;;
6388;SDS011;3227;42.654;23.360;2022-09-13T12:29:16;3.92;;;2.20;;
6388;SDS011;3227;42.654;23.360;2022-09-13T12:31:49;7.10;;;2.47;;
6388;SDS011;3227;42.654;23.360;2022-09-13T12:34:20;3.85;;;2.28;;
6388;SDS011;3227;42.654;23.360;2022-09-13T12:37:03;4.55;;;2.13;;
6388;SDS011;3227;42.654;23.360;2022-09-13T12:39:44;4.50;;;2.20;;
6388;SDS011;3227;42.654;23.360;2022-09-13T12:42:31;3.88;;;2.30;;
6388;SDS011;3227;42.654;23.360;2022-09-13T12:45:32;6.68;;;2.20;;
6388;SDS011;3227;42.654;23.360;2022-09-13T12:48:13;10.70;;;2.70;;
6388;SDS011;3227;42.654;23.360;2022-09-13T12:50:59;12.85;;;2.10;;
6388;SDS011;3227;42.654;23.360;2022-09-13T12:53:40;4.65;;;2.25;;
6388;SDS011;3227;42.654;23.360;2022-09-13T12:56:38;5.43;;;2.20;;
6388;SDS011;3227;42.654;23.360;2022-09-13T13:02:22;3.83;;;2.10;;
6388;SDS011;3227;42.654;23.360;2022-09-13T13:04:54;6.10;;;2.97;;
6388;SDS011;3227;42.654;23.360;2022-09-13T13:07:27;3.63;;;2.10;;
6388;SDS011;3227;42.654;23.360;2022-09-13T13:09:57;3.28;;;2.10;;
6388;SDS011;3227;42.654;23.360;2022-09-13T13:12:25;5.70;;;2.20;;
6388;SDS011;3227;42.654;23.360;2022-09-13T13:14:55;3.10;;;2.00;;
6388;SDS011;3227;42.654;23.360;2022-09-13T13:17:39;5.57;;;2.20;;
6388;SDS011;3227;42.654;23.360;2022-09-13T13:23:20;3.80;;;2.15;;
6388;SDS011;3227;42.654;23.360;2022-09-13T13:26:03;6.00;;;2.20;;
6388;SDS011;3227;42.654;23.360;2022-09-13T13:28:51;5.88;;;2.28;;
6388;SDS011;3227;42.654;23.360;2022-09-13T13:31:39;2.85;;;2.15;;
6388;SDS011;3227;42.654;23.360;2022-09-13T13:37:21;3.90;;;2.03;;
6388;SDS011;3227;42.654;23.360;2022-09-13T13:45:57;6.18;;;2.70;;
6388;SDS011;3227;42.654;23.360;2022-09-13T13:48:45;6.32;;;2.65;;
6388;SDS011;3227;42.654;23.360;2022-09-13T13:51:16;8.90;;;2.75;;
6388;SDS011;3227;42.654;23.360;2022-09-13T13:53:46;5.88;;;2.50;;
6388;SDS011;3227;42.654;23.360;2022-09-13T13:56:20;5.53;;;2.30;;
6388;SDS011;3227;42.654;23.360;2022-09-13T13:58:53;6.75;;;2.90;;
6388;SDS011;3227;42.654;23.360;2022-09-13T14:01:25;4.78;;;2.60;;
6388;SDS011;3227;42.654;23.360;2022-09-13T14:07:13;4.25;;;2.58;;
6388;SDS011;3227;42.654;23.360;2022-09-13T14:10:04;3.83;;;2.40;;
6388;SDS011;3227;42.654;23.360;2022-09-13T14:12:44;9.63;;;2.75;;
6388;SDS011;3227;42.654;23.360;2022-09-13T14:15:25;6.35;;;3.00;;
6388;SDS011;3227;42.654;23.360;2022-09-13T14:18:16;4.43;;;2.42;;
6388;SDS011;3227;42.654;23.360;2022-09-13T14:20:56;5.13;;;2.60;;
6388;SDS011;3227;42.654;23.360;2022-09-13T14:23:23;5.90;;;2.70;;
6388;SDS011;3227;42.654;23.360;2022-09-13T14:25:52;5.38;;;2.60;;
6388;SDS011;3227;42.654;23.360;2022-09-13T14:28:23;3.75;;;2.40;;
6388;SDS011;3227;42.654;23.360;2022-09-13T14:30:51;6.38;;;2.50;;
6388;SDS011;3227;42.654;23.360;2022-09-13T14:33:21;3.75;;;2.60;;
6388;SDS011;3227;42.654;23.360;2022-09-13T14:35:56;6.72;;;2.70;;
6388;SDS011;3227;42.654;23.360;2022-09-13T14:38:25;5.50;;;2.72;;
6388;SDS011;3227;42.654;23.360;2022-09-13T14:40:58;7.70;;;3.10;;
6388;SDS011;3227;42.654;23.360;2022-09-13T14:43:28;4.15;;;2.60;;
6388;SDS011;3227;42.654;23.360;2022-09-13T14:45:57;4.57;;;2.60;;
6388;SDS011;3227;42.654;23.360;2022-09-13T14:48:29;6.55;;;2.40;;
6388;SDS011;3227;42.654;23.360;2022-09-13T14:51:01;7.60;;;2.70;;
6388;SDS011;3227;42.654;23.360;2022-09-13T14:53:33;5.82;;;3.22;;
6388;SDS011;3227;42.654;23.360;2022-09-13T14:56:01;6.38;;;3.28;;
6388;SDS011;3227;42.654;23.360;2022-09-13T14:58:33;4.60;;;2.90;;
6388;SDS011;3227;42.654;23.360;2022-09-13T15:01:08;5.03;;;2.67;;
6388;SDS011;3227;42.654;23.360;2022-09-13T15:03:39;7.78;;;2.85;;
6388;SDS011;3227;42.654;23.360;2022-09-13T15:06:18;4.22;;;2.53;;
6388;SDS011;3227;42.654;23.360;2022-09-13T15:08:48;3.65;;;2.53;;
6388;SDS011;3227;42.654;23.360;2022-09-13T15:11:26;5.35;;;2.60;;
6388;SDS011;3227;42.654;23.360;2022-09-13T15:17:08;5.95;;;2.60;;
6388;SDS011;3227;42.654;23.360;2022-09-13T15:19:36;7.13;;;3.58;;
6388;SDS011;3227;42.654;23.360;2022-09-13T15:22:16;5.20;;;2.72;;
6388;SDS011;3227;42.654;23.360;2022-09-13T15:24:46;5.65;;;2.80;;
6388;SDS011;3227;42.654;23.360;2022-09-13T15:27:17;8.82;;;3.13;;
6388;SDS011;3227;42.654;23.360;2022-09-13T15:29:52;5.68;;;3.20;;
6388;SDS011;3227;42.654;23.360;2022-09-13T15:32:23;5.55;;;2.60;;
6388;SDS011;3227;42.654;23.360;2022-09-13T15:35:00;5.53;;;3.22;;
6388;SDS011;3227;42.654;23.360;2022-09-13T15:37:32;6.90;;;2.92;;
6388;SDS011;3227;42.654;23.360;2022-09-13T15:40:04;5.47;;;2.92;;
6388;SDS011;3227;42.654;23.360;2022-09-13T15:42:38;4.55;;;2.92;;
6388;SDS011;3227;42.654;23.360;2022-09-13T15:45:05;8.55;;;3.33;;
6388;SDS011;3227;42.654;23.360;2022-09-13T15:47:34;5.80;;;2.80;;
6388;SDS011;3227;42.654;23.360;2022-09-13T15:50:00;9.02;;;3.15;;
6388;SDS011;3227;42.654;23.360;2022-09-13T15:52:27;6.30;;;2.90;;
6388;SDS011;3227;42.654;23.360;2022-09-13T15:54:54;7.78;;;3.10;;
6388;SDS011;3227;42.654;23.360;2022-09-13T15:57:21;4.65;;;2.85;;
6388;SDS011;3227;42.654;23.360;2022-09-13T15:59:49;6.07;;;3.45;;
6388;SDS011;3227;42.654;23.360;2022-09-13T16:02:18;5.22;;;3.22;;
6388;SDS011;3227;42.654;23.360;2022-09-13T16:04:48;5.47;;;2.80;;
6388;SDS011;3227;42.654;23.360;2022-09-13T16:07:15;7.07;;;3.42;;
6388;SDS011;3227;42.654;23.360;2022-09-13T16:09:43;6.07;;;3.20;;